Time;durP1;ratioP1;P1;durP2;ratioP2;P2;SDS_P1;SDS_P2;PMS_P1;PMS_P2;Temp;Humidity;BMP_temperature;BMP_pressure;BME280_temperature;BME280_humidity;BME280_pressure;Samples;Min_cycle;Max_cycle;Signal;HPM_P1;HPM_P2
2023/12/15 00:01:29;;;;;;;11.27;5.05;;;;;;;6.32;77.82;98862.16;5046610;28;20608;-73
2023/12/15 00:03:57;;;;;;;9.48;5.63;;;;;;;6.11;78.02;98828.38;5035497;28;20024;-74
2023/12/15 00:06:25;;;;;;;12.55;5.00;;;;;;;6.32;78.54;98879.44;5054091;28;20078;-71
2023/12/15 00:08:50;;;;;;;10.18;4.82;;;;;;;6.41;77.99;98873.59;5043677;28;20056;-71
2023/12/15 00:11:18;;;;;;;9.18;4.32;;;;;;;6.55;77.91;98882.91;5034245;28;20182;-73
2023/12/15 00:13:45;;;;;;;11.15;5.50;;;;;;;6.14;77.48;98822.19;5043584;28;20770;-73
2023/12/15 00:16:13;;;;;;;10.93;5.65;;;;;;;6.38;79.18;98880.75;5045462;28;20029;-72
2023/12/15 00:18:43;;;;;;;8.15;4.35;;;;;;;6.14;78.63;98832.50;5030913;28;20025;-72
2023/12/15 00:21:16;;;;;;;8.35;4.18;;;;;;;6.44;77.71;98898.38;5047358;28;20032;-71
2023/12/15 00:23:41;;;;;;;8.30;4.00;;;;;;;6.42;77.41;98887.31;5033490;28;20058;-74
2023/12/15 00:26:09;;;;;;;12.85;5.07;;;;;;;6.49;78.64;98886.75;5042285;28;20029;-73
2023/12/15 00:28:34;;;;;;;10.55;5.80;;;;;;;6.28;77.93;98883.16;5039723;28;20045;-71
2023/12/15 00:30:59;;;;;;;9.73;5.13;;;;;;;6.19;79.42;98873.47;5046664;28;20040;-72
2023/12/15 00:33:25;;;;;;;11.50;5.07;;;;;;;5.84;79.58;98858.72;5046803;28;20391;-74
2023/12/15 00:35:50;;;;;;;9.48;4.72;;;;;;;6.22;79.18;98897.31;5045203;28;20104;-73
2023/12/15 00:38:18;;;;;;;9.73;4.80;;;;;;;6.27;78.77;98892.66;5033898;28;20111;-69
2023/12/15 00:40:43;;;;;;;9.45;4.65;;;;;;;6.29;79.69;98892.56;5043769;28;20562;-72
2023/12/15 00:43:09;;;;;;;7.53;3.67;;;;;;;6.06;79.22;98866.63;5038052;28;20035;-73
2023/12/15 00:45:34;;;;;;;8.07;4.28;;;;;;;5.95;79.23;98862.25;5038576;28;20024;-70
2023/12/15 00:48:02;;;;;;;7.47;3.60;;;;;;;6.21;79.80;98910.38;5032741;28;20494;-71
2023/12/15 00:50:28;;;;;;;8.10;3.92;;;;;;;6.26;79.66;98923.75;5053374;28;20046;-68
2023/12/15 00:52:54;;;;;;;7.00;3.80;;;;;;;6.34;79.02;98924.03;5048824;28;20039;-74
2023/12/15 00:55:20;;;;;;;7.90;4.07;;;;;;;6.38;78.84;98925.47;5045840;28;20048;-69
2023/12/15 00:57:47;;;;;;;7.32;4.13;;;;;;;6.25;79.45;98915.19;5029974;28;20029;-75
2023/12/15 01:00:13;;;;;;;10.20;4.70;;;;;;;5.81;79.27;98893.31;5034064;28;20035;-72
2023/12/15 01:02:38;;;;;;;9.90;4.43;;;;;;;6.18;79.89;98931.25;5045484;28;20017;-74
2023/12/15 01:05:04;;;;;;;8.80;4.35;;;;;;;6.07;80.91;98945.72;5043078;28;20033;-74
2023/12/15 01:07:31;;;;;;;9.43;4.43;;;;;;;6.03;81.10;98948.63;5035772;28;20035;-72
2023/12/15 01:09:58;;;;;;;9.40;4.05;;;;;;;6.00;80.54;98948.84;5032520;28;20032;-73
2023/12/15 01:12:24;;;;;;;8.57;4.50;;;;;;;5.91;81.20;98908.97;5033140;28;20045;-72
2023/12/15 01:14:52;;;;;;;8.38;4.00;;;;;;;6.21;81.43;98955.09;5042174;28;20022;-73
2023/12/15 01:17:17;;;;;;;8.00;4.10;;;;;;;6.23;81.03;98965.31;5048729;28;20211;-74
2023/12/15 01:19:47;;;;;;;7.47;4.13;;;;;;;6.20;80.28;98955.19;5047812;28;20913;-70
2023/12/15 01:22:13;;;;;;;10.65;4.80;;;;;;;6.27;81.30;98974.47;5050823;28;20028;-73
2023/12/15 01:24:40;;;;;;;11.68;5.07;;;;;;;5.81;80.63;98918.31;5050355;28;20039;-75
2023/12/15 01:27:11;;;;;;;9.18;4.20;;;;;;;6.18;81.45;98980.28;5032286;28;20083;-74
2023/12/15 01:29:37;;;;;;;7.57;3.80;;;;;;;6.08;81.18;98923.31;5046079;28;20117;-75
2023/12/15 01:32:05;;;;;;;8.77;3.78;;;;;;;6.22;79.66;98941.22;5031587;28;20116;-71
2023/12/15 01:34:33;;;;;;;5.88;3.30;;;;;;;6.12;79.98;98943.66;5027826;28;20028;-74
2023/12/15 01:37:00;;;;;;;6.68;3.45;;;;;;;6.12;79.28;98942.81;5029534;28;20407;-73
2023/12/15 01:39:26;;;;;;;8.77;3.17;;;;;;;6.49;79.24;98994.44;5051045;28;20082;-74
2023/12/15 01:41:53;;;;;;;7.88;3.60;;;;;;;6.26;79.98;98998.63;5047880;28;20032;-74
2023/12/15 01:44:19;;;;;;;7.55;3.20;;;;;;;6.40;80.12;98982.19;5031715;28;21568;-74
2023/12/15 01:46:44;;;;;;;7.07;3.35;;;;;;;6.18;80.41;98963.03;5051819;28;20107;-70
2023/12/15 01:49:12;;;;;;;6.22;3.17;;;;;;;6.24;80.04;98995.34;5046847;28;20028;-72
2023/12/15 01:51:38;;;;;;;7.28;3.70;;;;;;;6.00;80.52;99000.47;5036106;28;20032;-74
2023/12/15 01:54:03;;;;;;;8.43;3.72;;;;;;;6.04;81.94;99007.06;5048464;28;20584;-72
2023/12/15 01:56:28;;;;;;;6.65;3.38;;;;;;;6.03;81.83;98974.44;5026937;28;20108;-71
2023/12/15 01:58:56;;;;;;;8.15;4.05;;;;;;;6.19;81.80;98995.69;5046846;28;20036;-74
2023/12/15 02:01:21;;;;;;;8.05;3.50;;;;;;;5.97;81.39;98973.13;5042667;28;20025;-74
2023/12/15 02:03:48;;;;;;;7.30;3.55;;;;;;;6.14;81.37;99006.31;5048093;28;20032;-73
2023/12/15 02:06:15;;;;;;;10.63;4.22;;;;;;;6.16;81.31;99014.78;5029848;28;20066;-73
2023/12/15 02:08:44;;;;;;;7.47;3.67;;;;;;;6.25;81.08;99018.47;5043869;28;20843;-72
2023/12/15 02:11:17;;;;;;;7.43;3.25;;;;;;;6.28;80.39;99020.88;5028488;28;20056;-72
2023/12/15 02:13:45;;;;;;;7.70;2.83;;;;;;;6.18;80.33;99030.16;5027019;28;20041;-69
2023/12/15 02:16:10;;;;;;;7.47;3.08;;;;;;;6.07;80.53;99041.25;5044863;28;20683;-73
2023/12/15 02:18:36;;;;;;;7.35;3.28;;;;;;;5.75;79.93;98990.06;5046583;28;20031;-72
2023/12/15 02:21:01;;;;;;;8.00;4.00;;;;;;;5.70;80.88;98986.94;5024008;28;20029;-73
2023/12/15 02:23:27;;;;;;;7.75;3.55;;;;;;;5.92;81.20;99011.28;5035945;28;20048;-70
2023/12/15 02:25:54;;;;;;;8.75;3.65;;;;;;;5.99;80.02;98996.22;5046032;28;20024;-72
2023/12/15 02:28:20;;;;;;;6.78;2.67;;;;;;;6.33;79.68;99038.59;5041611;28;20060;-71
2023/12/15 02:30:47;;;;;;;6.50;3.20;;;;;;;6.34;78.75;99048.00;5043105;28;20108;-73
2023/12/15 02:33:14;;;;;;;6.85;2.88;;;;;;;6.27;78.17;99045.03;5032473;28;20169;-73
2023/12/15 02:35:42;;;;;;;6.78;3.10;;;;;;;6.28;79.12;99032.94;5049119;28;20017;-72
2023/12/15 02:38:10;;;;;;;10.45;3.15;;;;;;;6.35;79.98;99055.66;5029046;28;20071;-73
2023/12/15 02:40:36;;;;;;;7.15;2.97;;;;;;;6.18;79.82;99008.69;5053275;28;20035;-75
2023/12/15 02:43:01;;;;;;;7.78;3.80;;;;;;;6.12;78.53;99034.00;5048451;28;20689;-74
2023/12/15 02:45:29;;;;;;;9.15;3.88;;;;;;;6.23;79.26;99041.00;5034564;28;20070;-71
2023/12/15 02:47:54;;;;;;;10.70;4.38;;;;;;;6.34;80.52;99045.44;5036373;28;20102;-71
2023/12/15 02:50:22;;;;;;;8.75;3.85;;;;;;;6.39;79.80;99050.25;5047779;28;20041;-74
2023/12/15 02:52:50;;;;;;;7.95;3.58;;;;;;;6.05;80.86;98999.22;5048585;28;20025;-75
2023/12/15 02:55:18;;;;;;;8.50;3.67;;;;;;;5.96;81.77;99003.25;5046589;28;20519;-74
2023/12/15 02:57:43;;;;;;;8.80;3.53;;;;;;;5.76;81.62;98996.03;5029780;28;20154;-73
2023/12/15 03:00:12;;;;;;;7.72;3.30;;;;;;;6.21;80.58;99052.41;5045131;28;20178;-73
2023/12/15 03:02:41;;;;;;;8.83;3.43;;;;;;;6.19;80.35;99042.16;5045987;28;21153;-72
2023/12/15 03:05:07;;;;;;;8.57;4.07;;;;;;;5.92;80.81;99006.13;5053493;28;20036;-73
2023/12/15 03:07:35;;;;;;;10.00;4.03;;;;;;;5.98;81.17;99026.38;5036253;28;20078;-73
2023/12/15 03:10:02;;;;;;;9.73;3.67;;;;;;;6.13;81.45;99053.75;5048672;28;20060;-71
2023/12/15 03:12:32;;;;;;;8.32;3.47;;;;;;;6.08;80.92;99060.97;5047179;28;20087;-71
2023/12/15 03:15:00;;;;;;;8.27;3.63;;;;;;;6.16;82.00;99065.59;5047639;28;20025;-72
2023/12/15 03:17:25;;;;;;;10.15;3.53;;;;;;;5.98;82.39;99070.25;5051046;28;20072;-74
2023/12/15 03:19:52;;;;;;;8.88;3.80;;;;;;;5.73;82.34;99011.72;5036351;28;20112;-75
2023/12/15 03:22:18;;;;;;;8.45;3.05;;;;;;;6.16;81.88;99073.34;5035139;28;20451;-72
2023/12/15 03:24:43;;;;;;;9.30;3.33;;;;;;;5.98;81.92;99065.09;5038392;28;20097;-74
2023/12/15 03:27:09;;;;;;;8.00;2.70;;;;;;;5.61;83.09;99040.94;5037075;28;20045;-74
2023/12/15 03:29:34;;;;;;;6.60;2.40;;;;;;;5.76;83.53;99074.25;5051034;28;20029;-74
2023/12/15 03:31:59;;;;;;;7.43;3.05;;;;;;;5.91;83.38;99090.50;5048369;28;20037;-74
2023/12/15 03:34:25;;;;;;;7.25;2.53;;;;;;;5.96;82.80;99090.19;5043249;28;20086;-73
2023/12/15 03:36:55;;;;;;;5.70;2.50;;;;;;;5.78;82.98;99089.66;5049293;28;20033;-73
2023/12/15 03:39:20;;;;;;;6.45;2.20;;;;;;;5.78;82.22;99082.72;5045267;28;20017;-75
2023/12/15 03:41:45;;;;;;;6.15;2.40;;;;;;;5.76;82.33;99087.16;5048455;28;20032;-73
2023/12/15 03:44:13;;;;;;;7.45;2.33;;;;;;;5.81;82.38;99099.78;5045095;28;20036;-75
2023/12/15 03:46:39;;;;;;;5.88;2.83;;;;;;;5.59;83.08;99090.06;5051276;28;20062;-73
2023/12/15 03:49:04;;;;;;;6.50;2.92;;;;;;;5.76;81.69;99094.91;5030124;28;20713;-75
2023/12/15 03:51:32;;;;;;;7.25;2.90;;;;;;;5.73;82.05;99102.88;5037564;28;20616;-75
2023/12/15 03:54:02;;;;;;;7.70;2.70;;;;;;;5.89;82.75;99112.16;5031325;28;20040;-73
2023/12/15 03:56:27;;;;;;;6.72;2.80;;;;;;;5.88;82.41;99124.25;5040043;28;20028;-75
2023/12/15 03:58:53;;;;;;;6.75;2.10;;;;;;;5.69;80.91;99070.44;5051833;28;20075;-72
2023/12/15 04:01:18;;;;;;;7.80;2.30;;;;;;;5.83;81.07;99107.41;5033848;28;20028;-72
2023/12/15 04:03:44;;;;;;;5.22;2.00;;;;;;;5.91;80.21;99118.88;5035548;28;20037;-72
2023/12/15 04:06:14;;;;;;;5.38;1.92;;;;;;;6.06;81.89;99124.81;5031931;28;20621;-75
2023/12/15 04:08:42;;;;;;;2.58;0.77;;;;;;;7.60;61.41;99124.31;5045077;28;20361;-75
2023/12/15 04:11:08;;;;;;;2.25;0.68;;;;;;;8.54;56.81;99119.03;5029592;28;20553;-74
2023/12/15 04:13:36;;;;;;;3.20;0.60;;;;;;;8.67;54.73;99130.09;5033427;28;20040;-73
2023/12/15 04:16:03;;;;;;;1.42;0.60;;;;;;;9.13;52.75;99139.44;5027465;28;20089;-74
2023/12/15 04:18:28;;;;;;;0.98;0.40;;;;;;;9.16;51.43;99125.38;5029872;28;20064;-75
2023/12/15 04:20:56;;;;;;;1.00;0.30;;;;;;;9.59;49.57;99133.09;5043893;28;20522;-72
2023/12/15 04:23:21;;;;;;;1.40;0.40;;;;;;;9.85;48.25;99131.91;5030382;28;20490;-75
2023/12/15 04:25:49;;;;;;;1.65;0.47;;;;;;;9.91;47.64;99123.59;5045085;28;20024;-74
2023/12/15 04:28:17;;;;;;;1.58;0.45;;;;;;;9.88;48.14;99129.06;5046367;28;20154;-71
2023/12/15 04:30:42;;;;;;;2.20;0.50;;;;;;;9.85;47.95;99124.13;5031011;28;20025;-73
2023/12/15 04:33:08;;;;;;;3.58;0.70;;;;;;;9.76;48.47;99129.13;5052273;28;20106;-73
2023/12/15 04:35:36;;;;;;;1.52;0.57;;;;;;;9.55;52.50;99136.91;5029510;28;20475;-73
2023/12/15 04:38:04;;;;;;;2.40;0.68;;;;;;;8.78;58.78;99098.13;5054270;28;20036;-72
2023/12/15 04:40:32;;;;;;;1.98;0.70;;;;;;;8.80;62.73;99141.16;5041573;28;20024;-74
2023/12/15 04:42:57;;;;;;;3.83;0.85;;;;;;;8.70;63.66;99136.81;5043849;28;20032;-74
2023/12/15 04:45:25;;;;;;;2.45;0.88;;;;;;;8.36;65.84;99145.41;5045445;28;20435;-73
2023/12/15 04:47:51;;;;;;;2.88;0.90;;;;;;;8.01;66.30;99107.47;5046910;28;20024;-73
2023/12/15 04:50:17;;;;;;;4.15;1.10;;;;;;;8.24;65.96;99149.72;5036140;28;20021;-73
2023/12/15 04:52:45;;;;;;;4.60;1.10;;;;;;;8.11;66.17;99167.16;5040788;28;20703;-71
2023/12/15 04:55:10;;;;;;;3.55;1.10;;;;;;;8.02;66.69;99157.50;5035447;28;20107;-75
2023/12/15 04:57:38;;;;;;;3.63;1.00;;;;;;;7.99;67.42;99161.09;5045335;28;21432;-71
2023/12/15 05:00:09;;;;;;;3.30;1.00;;;;;;;7.43;67.92;99115.22;5031709;28;20036;-74
2023/12/15 05:02:34;;;;;;;3.47;1.00;;;;;;;7.30;68.65;99120.44;5048961;28;20478;-73
2023/12/15 05:05:02;;;;;;;3.67;0.77;;;;;;;7.72;68.52;99170.94;5037655;28;20036;-73
2023/12/15 05:07:27;;;;;;;3.45;0.85;;;;;;;7.73;68.95;99163.06;5032609;28;20041;-74
2023/12/15 05:09:53;;;;;;;2.50;0.80;;;;;;;7.77;68.86;99174.00;5043101;28;20062;-72
2023/12/15 05:12:19;;;;;;;3.70;0.98;;;;;;;7.46;69.35;99184.81;5042506;28;20119;-73
2023/12/15 05:14:44;;;;;;;5.90;1.67;;;;;;;7.52;68.81;99191.34;5042362;28;20111;-74
2023/12/15 05:17:09;;;;;;;4.53;1.50;;;;;;;7.25;70.27;99191.56;5045464;28;20036;-75
2023/12/15 05:19:35;;;;;;;3.67;1.27;;;;;;;7.15;70.89;99188.78;5036041;28;20056;-72
2023/12/15 05:22:00;;;;;;;5.15;1.67;;;;;;;7.27;71.00;99189.69;5034195;28;20395;-71
2023/12/15 05:24:26;;;;;;;5.80;2.22;;;;;;;7.09;70.96;99202.16;5047717;28;20036;-75
2023/12/15 05:26:51;;;;;;;6.65;2.30;;;;;;;7.00;71.82;99193.28;5047397;28;20028;-74
2023/12/15 05:29:16;;;;;;;10.80;3.53;;;;;;;7.07;71.50;99194.50;5030230;28;20033;-74
2023/12/15 05:31:50;;;;;;;9.00;3.45;;;;;;;7.02;71.20;99206.94;5032853;28;20070;-75
2023/12/15 05:34:15;;;;;;;7.65;2.97;;;;;;;6.59;72.32;99155.66;5031466;28;20028;-73
2023/12/15 05:36:40;;;;;;;9.75;3.42;;;;;;;6.64;72.94;99158.72;5029812;28;20036;-75
2023/12/15 05:39:07;;;;;;;10.18;3.80;;;;;;;6.78;72.31;99170.69;5046399;28;20537;-72
2023/12/15 05:41:32;;;;;;;11.05;4.63;;;;;;;6.70;72.04;99201.44;5030868;28;20017;-74
2023/12/15 05:43:57;;;;;;;12.48;7.00;;;;;;;6.67;72.77;99214.56;5030632;28;20059;-74
2023/12/15 05:46:25;;;;;;;12.85;6.53;;;;;;;6.38;73.00;99185.53;5026882;28;20029;-74
2023/12/15 05:48:50;;;;;;;14.75;6.65;;;;;;;6.61;73.45;99205.47;5046543;28;20029;-72
2023/12/15 05:51:16;;;;;;;11.82;5.32;;;;;;;6.45;73.13;99212.59;5044039;28;20078;-72
2023/12/15 05:53:42;;;;;;;9.60;4.68;;;;;;;6.48;71.89;99225.28;5041463;28;20045;-71
2023/12/15 05:56:10;;;;;;;7.53;3.40;;;;;;;6.37;71.36;99213.13;5029753;28;20487;-74
2023/12/15 05:58:35;;;;;;;7.93;3.17;;;;;;;6.39;71.24;99221.59;5028043;28;20086;-74
2023/12/15 06:01:01;;;;;;;6.60;3.00;;;;;;;6.32;72.62;99223.75;5049406;28;20721;-75
2023/12/15 06:03:28;;;;;;;7.07;2.67;;;;;;;6.32;71.95;99233.25;5030286;28;20043;-70
2023/12/15 06:05:56;;;;;;;2.13;0.60;;;;;;;7.81;57.78;99215.09;5029443;28;20071;-71
2023/12/15 06:08:21;;;;;;;1.00;0.40;;;;;;;8.86;53.45;99233.19;5044270;28;20048;-75
2023/12/15 06:10:49;;;;;;;2.25;0.30;;;;;;;9.48;51.04;99236.19;5027669;28;20598;-72
2023/12/15 06:13:17;;;;;;;1.23;0.40;;;;;;;9.32;49.62;99189.84;5028263;28;20025;-70
2023/12/15 06:15:45;;;;;;;2.10;0.43;;;;;;;9.55;48.47;99204.41;5032147;28;20706;-72
2023/12/15 06:18:10;;;;;;;1.23;0.20;;;;;;;9.98;47.99;99239.88;5047029;28;20047;-74
2023/12/15 06:20:38;;;;;;;1.45;0.40;;;;;;;10.11;46.41;99244.91;5047254;28;20472;-72
2023/12/15 06:23:06;;;;;;;1.15;0.40;;;;;;;10.01;44.18;99208.44;5035311;28;20029;-72
2023/12/15 06:25:31;;;;;;;0.38;0.20;;;;;;;10.18;43.27;99201.88;5029037;28;20074;-75
2023/12/15 06:27:56;;;;;;;0.85;0.30;;;;;;;10.58;41.66;99247.94;5045036;28;21650;-71
2023/12/15 06:30:24;;;;;;;0.32;0.10;;;;;;;10.62;40.18;99245.09;5040143;28;20028;-73
2023/12/15 06:32:50;;;;;;;0.75;0.20;;;;;;;10.56;44.54;99233.44;5053021;28;20024;-73
2023/12/15 06:35:16;;;;;;;0.10;0.10;;;;;;;10.74;41.51;99252.66;5048572;28;20029;-73
2023/12/15 06:37:44;;;;;;;0.47;0.10;;;;;;;10.53;40.93;99228.47;5048394;28;20028;-74
2023/12/15 06:40:10;;;;;;;1.02;0.20;;;;;;;10.67;41.48;99267.16;5028457;28;20128;-72
2023/12/15 06:42:35;;;;;;;0.30;0.10;;;;;;;10.62;42.06;99260.69;5042439;28;21605;-71
2023/12/15 06:45:07;;;;;;;0.35;0.10;;;;;;;10.37;39.10;99232.38;5031632;28;20116;-75
2023/12/15 06:47:34;;;;;;;0.63;0.20;;;;;;;10.94;38.84;99270.97;5031867;28;20132;-71
2023/12/15 06:50:00;;;;;;;0.80;0.30;;;;;;;10.82;45.01;99266.81;5047527;28;20071;-74
2023/12/15 06:52:27;;;;;;;0.38;0.20;;;;;;;10.86;46.79;99276.00;5047607;28;20111;-75
2023/12/15 06:54:55;;;;;;;0.38;0.20;;;;;;;10.86;47.08;99276.00;5032292;28;20049;-71
2023/12/15 06:57:23;;;;;;;0.55;0.10;;;;;;;10.67;42.91;99237.72;5028209;28;20073;-75
2023/12/15 06:59:48;;;;;;;0.10;0.10;;;;;;;11.00;42.96;99285.25;5052761;28;20038;-74
2023/12/15 07:02:16;;;;;;;0.60;0.10;;;;;;;11.06;40.88;99293.34;5028814;28;20036;-72
2023/12/15 07:04:44;;;;;;;0.85;0.30;;;;;;;11.33;38.01;99299.72;5046438;28;20048;-76
2023/12/15 07:07:12;;;;;;;0.10;0.10;;;;;;;11.53;37.06;99296.22;5039656;28;20021;-76
2023/12/15 07:09:38;;;;;;;0.15;0.10;;;;;;;11.69;35.82;99294.88;5034391;28;20040;-74
2023/12/15 07:12:04;;;;;;;0.32;0.10;;;;;;;11.67;36.75;99291.59;5055635;28;20866;-74
2023/12/15 07:14:29;;;;;;;0.45;0.10;;;;;;;11.68;33.93;99303.66;5032774;28;20048;-72
2023/12/15 07:16:55;;;;;;;0.25;0.10;;;;;;;11.71;36.07;99308.59;5045089;28;20039;-75
2023/12/15 07:19:20;;;;;;;0.52;0.20;;;;;;;11.67;36.45;99304.63;5042476;28;20025;-74
2023/12/15 07:21:50;;;;;;;1.00;0.10;;;;;;;11.72;35.35;99316.28;5036213;28;20062;-74
2023/12/15 07:24:16;;;;;;;0.13;0.10;;;;;;;11.83;35.12;99317.94;5052282;28;20087;-75
2023/12/15 07:26:41;;;;;;;1.17;0.20;;;;;;;11.83;34.95;99324.94;5047983;28;20541;-77
2023/12/15 07:29:09;;;;;;;0.52;0.10;;;;;;;11.87;36.40;99324.53;5050723;28;20040;-72
2023/12/15 07:31:36;;;;;;;1.85;0.17;;;;;;;11.70;35.79;99318.19;5029582;28;20031;-70
2023/12/15 07:34:01;;;;;;;0.85;0.20;;;;;;;11.59;34.79;99326.13;5038785;28;20036;-76
2023/12/15 07:36:26;;;;;;;0.50;0.10;;;;;;;11.57;33.99;99329.81;5049982;28;20029;-74
2023/12/15 07:38:54;;;;;;;0.17;0.13;;;;;;;11.84;33.01;99329.19;5047983;28;20044;-77
2023/12/15 07:41:19;;;;;;;0.40;0.10;;;;;;;11.80;32.60;99326.03;5049654;28;20360;-74
2023/12/15 07:43:45;;;;;;;0.20;0.13;;;;;;;11.64;34.71;99328.31;5047352;28;20033;-69
2023/12/15 07:46:19;;;;;;;0.45;0.10;;;;;;;11.74;34.64;99337.00;5033069;28;20050;-73
2023/12/15 07:48:47;;;;;;;0.30;0.10;;;;;;;11.61;34.87;99336.38;5047090;28;20036;-76
2023/12/15 07:51:20;;;;;;;0.50;0.10;;;;;;;11.44;35.92;99302.22;5034444;28;20025;-75
2023/12/15 07:53:48;;;;;;;1.30;0.20;;;;;;;11.77;32.93;99347.13;5031875;28;20076;-71
2023/12/15 07:56:21;;;;;;;0.15;0.10;;;;;;;11.79;31.39;99373.03;5048585;28;20034;-74
2023/12/15 07:58:49;;;;;;;0.10;0.10;;;;;;;11.79;33.48;99370.44;5032643;28;20017;-74
2023/12/15 08:01:15;;;;;;;0.52;0.10;;;;;;;11.83;33.02;99374.44;5047811;28;21293;-73
2023/12/15 08:03:43;;;;;;;0.25;0.10;;;;;;;11.54;34.11;99316.09;5032235;28;20029;-76
2023/12/15 08:06:13;;;;;;;0.10;0.10;;;;;;;11.71;34.73;99364.13;5032263;28;20036;-74
2023/12/15 08:08:41;;;;;;;0.43;0.20;;;;;;;11.68;34.55;99380.03;5048845;28;20055;-75
2023/12/15 08:11:07;;;;;;;0.35;0.17;;;;;;;11.74;32.19;99382.09;5035769;28;20044;-76
2023/12/15 08:13:32;;;;;;;0.73;0.20;;;;;;;11.87;31.52;99387.06;5047861;28;20033;-74
2023/12/15 08:15:58;;;;;;;0.82;0.20;;;;;;;11.94;32.27;99390.00;5032043;28;20025;-72
2023/12/15 08:18:25;;;;;;;0.40;0.10;;;;;;;11.61;34.68;99354.63;5047458;28;20290;-75
2023/12/15 08:20:51;;;;;;;0.75;0.30;;;;;;;11.77;34.34;99396.63;5043714;28;20035;-73
2023/12/15 08:23:16;;;;;;;1.63;0.40;;;;;;;11.74;32.67;99402.13;5052481;28;20025;-76
2023/12/15 08:25:44;;;;;;;1.20;0.38;;;;;;;11.78;33.98;99419.13;5042178;28;20029;-75
2023/12/15 08:28:11;;;;;;;1.13;0.40;;;;;;;11.68;34.83;99415.66;5050738;28;20097;-73
2023/12/15 08:30:40;;;;;;;1.65;0.40;;;;;;;11.69;33.51;99414.72;5046255;28;20033;-74
2023/12/15 08:33:05;;;;;;;3.08;0.68;;;;;;;11.74;34.14;99434.19;5037640;28;20057;-73
2023/12/15 08:35:33;;;;;;;6.47;2.08;;;;;;;11.60;31.87;99426.75;5044034;28;20035;-70
2023/12/15 08:37:58;;;;;;;0.77;0.28;;;;;;;11.79;31.51;99433.81;5032086;28;20016;-73
2023/12/15 08:40:28;;;;;;;2.97;0.73;;;;;;;11.76;32.54;99439.28;5033359;28;20589;-76
2023/12/15 08:42:54;;;;;;;1.95;0.50;;;;;;;11.83;32.44;99426.56;5047889;28;20617;-75
2023/12/15 08:45:19;;;;;;;4.60;1.65;;;;;;;11.75;30.38;99437.63;5034447;28;20044;-71
2023/12/15 08:47:48;;;;;;;2.47;0.70;;;;;;;11.77;30.96;99453.13;5042270;28;20031;-73
2023/12/15 08:50:13;;;;;;;0.77;0.30;;;;;;;11.61;33.62;99458.81;5030583;28;20032;-75
2023/12/15 08:52:40;;;;;;;1.08;0.32;;;;;;;11.78;32.06;99471.25;5042925;28;20554;-75
2023/12/15 08:55:05;;;;;;;2.10;0.40;;;;;;;11.88;32.71;99469.50;5052724;28;20166;-75
2023/12/15 08:57:31;;;;;;;2.28;0.63;;;;;;;11.85;32.99;99454.13;5030863;28;20765;-75
2023/12/15 08:59:56;;;;;;;0.40;0.20;;;;;;;11.89;32.77;99472.94;5035919;28;20032;-73
2023/12/15 09:02:25;;;;;;;0.68;0.30;;;;;;;11.85;31.68;99454.13;5049106;28;20021;-74
2023/12/15 09:04:51;;;;;;;0.45;0.20;;;;;;;11.86;31.70;99467.97;5042343;28;20044;-72
2023/12/15 09:07:24;;;;;;;0.10;0.10;;;;;;;12.03;30.80;99474.34;5046930;28;20024;-75
2023/12/15 09:09:49;;;;;;;1.65;0.20;;;;;;;11.84;33.29;99449.03;5030729;28;20033;-74
2023/12/15 09:12:15;;;;;;;0.25;0.10;;;;;;;12.07;30.31;99480.97;5048676;28;20763;-76
2023/12/15 09:14:40;;;;;;;0.20;0.17;;;;;;;12.07;32.06;99478.38;5046812;28;20040;-75
2023/12/15 09:17:11;;;;;;;1.00;0.30;;;;;;;11.97;31.26;99486.13;5046056;28;20032;-73
2023/12/15 09:19:38;;;;;;;0.40;0.30;;;;;;;11.97;32.20;99486.13;5048407;28;20025;-76
2023/12/15 09:22:05;;;;;;;0.70;0.20;;;;;;;11.72;33.50;99466.56;5047647;28;20037;-71
2023/12/15 09:24:30;;;;;;;0.63;0.30;;;;;;;11.97;31.40;99487.94;5031638;28;20038;-76
2023/12/15 09:26:56;;;;;;;1.30;0.38;;;;;;;11.85;31.68;99446.31;5035183;28;20025;-75
2023/12/15 09:29:23;;;;;;;0.68;0.20;;;;;;;12.05;30.22;99496.75;5048296;28;20037;-74
2023/12/15 09:31:49;;;;;;;0.80;0.30;;;;;;;11.77;30.44;99474.78;5042235;28;20100;-74
2023/12/15 09:34:14;;;;;;;0.10;0.10;;;;;;;12.04;30.07;99515.94;5048421;28;20041;-73
2023/12/15 09:36:40;;;;;;;0.60;0.20;;;;;;;12.16;30.59;99513.25;5044186;28;20033;-75
2023/12/15 09:39:05;;;;;;;1.25;0.22;;;;;;;12.24;29.27;99497.75;5042449;28;20480;-72
2023/12/15 09:41:31;;;;;;;0.57;0.20;;;;;;;12.22;31.70;99516.13;5045111;28;20035;-74
2023/12/15 09:43:57;;;;;;;0.63;0.30;;;;;;;12.24;30.33;99509.00;5044931;28;20112;-73
2023/12/15 09:46:25;;;;;;;0.93;0.30;;;;;;;12.02;29.69;99473.53;5033133;28;20043;-74
2023/12/15 09:48:53;;;;;;;4.30;0.40;;;;;;;12.16;31.32;99515.88;5046209;28;20039;-74
2023/12/15 09:51:25;;;;;;;1.58;0.30;;;;;;;12.11;30.49;99517.06;5051004;28;20058;-72
2023/12/15 09:53:51;;;;;;;1.48;0.38;;;;;;;12.19;30.78;99518.19;5055995;28;21213;-72
2023/12/15 09:56:17;;;;;;;0.93;0.30;;;;;;;12.37;28.10;99524.41;5045662;28;20613;-73
2023/12/15 09:58:43;;;;;;;0.70;0.30;;;;;;;12.42;29.19;99524.00;5049671;28;20033;-70
2023/12/15 10:01:11;;;;;;;1.40;0.40;;;;;;;12.43;32.42;99512.59;5040066;28;20041;-71
2023/12/15 10:03:39;;;;;;;2.20;0.73;;;;;;;12.27;34.71;99513.97;5032351;28;20112;-69
2023/12/15 10:06:06;;;;;;;0.80;0.38;;;;;;;12.18;32.28;99504.31;5039329;28;20040;-68
2023/12/15 10:08:47;;;;;;;0.77;0.30;;;;;;;12.11;30.86;99484.97;5034063;28;20044;-71
2023/12/15 10:11:13;;;;;;;1.67;0.40;;;;;;;12.50;32.15;99521.53;5025614;28;20063;-69
2023/12/15 10:13:43;;;;;;;0.63;0.20;;;;;;;12.45;29.12;99508.91;5046084;28;20056;-71
2023/12/15 10:16:09;;;;;;;0.98;0.40;;;;;;;12.55;29.58;99503.72;5033898;28;20028;-69
2023/12/15 10:18:35;;;;;;;1.08;0.22;;;;;;;12.46;32.50;99494.91;5039685;28;21100;-68
2023/12/15 10:21:01;;;;;;;1.05;0.35;;;;;;;12.28;31.57;99478.25;5044375;28;20029;-68
2023/12/15 10:23:30;;;;;;;0.98;0.30;;;;;;;12.39;29.21;99477.31;5040878;28;20028;-71
2023/12/15 10:25:58;;;;;;;1.80;0.60;;;;;;;12.60;28.32;99505.91;5043909;28;20040;-70
2023/12/15 10:28:23;;;;;;;2.90;0.50;;;;;;;12.65;28.83;99501.13;5030440;28;20028;-69
2023/12/15 10:30:52;;;;;;;1.15;0.30;;;;;;;12.70;31.34;99519.78;5026219;28;20059;-69
2023/12/15 10:33:18;;;;;;;1.42;0.35;;;;;;;12.73;30.28;99522.13;5025494;28;20044;-69
2023/12/15 10:35:47;;;;;;;0.45;0.20;;;;;;;12.80;29.08;99530.25;5025090;28;20102;-69
2023/12/15 10:38:14;;;;;;;0.50;0.20;;;;;;;12.86;30.37;99525.28;5039162;28;20095;-69
2023/12/15 10:40:46;;;;;;;0.55;0.20;;;;;;;13.05;31.11;99534.06;5039972;28;20043;-71
2023/12/15 10:43:14;;;;;;;0.43;0.20;;;;;;;13.02;28.18;99516.09;5040604;28;20033;-69
2023/12/15 10:45:44;;;;;;;1.00;0.30;;;;;;;12.86;29.47;99488.75;5041762;28;20264;-69
2023/12/15 10:48:10;;;;;;;1.95;0.50;;;;;;;12.78;33.67;99498.25;5036848;28;20127;-69
2023/12/15 10:50:41;;;;;;;1.13;0.20;;;;;;;12.94;29.75;99544.66;5042731;28;20631;-67
2023/12/15 10:53:09;;;;;;;0.68;0.30;;;;;;;12.97;32.25;99521.72;5039003;28;20036;-68
2023/12/15 10:55:36;;;;;;;0.75;0.20;;;;;;;12.77;31.94;99479.13;5026900;28;20439;-67
2023/12/15 10:58:02;;;;;;;0.40;0.20;;;;;;;12.96;32.71;99525.31;5022796;28;20032;-70
2023/12/15 11:00:36;;;;;;;0.10;0.10;;;;;;;13.02;30.69;99529.97;5024194;28;20024;-69
2023/12/15 11:03:05;;;;;;;0.40;0.10;;;;;;;13.11;30.97;99537.94;5027389;28;20036;-70
2023/12/15 11:05:32;;;;;;;0.13;0.10;;;;;;;13.13;30.95;99536.03;5028188;28;20507;-70
2023/12/15 11:08:00;;;;;;;0.93;0.30;;;;;;;12.98;30.70;99509.50;5023920;28;20730;-69
2023/12/15 11:10:25;;;;;;;0.20;0.13;;;;;;;13.13;31.45;99544.66;5042249;28;20102;-70
2023/12/15 11:12:52;;;;;;;0.60;0.20;;;;;;;13.04;32.30;99525.44;5024759;28;20032;-69
2023/12/15 11:15:22;;;;;;;0.70;0.20;;;;;;;13.08;31.10;99532.00;5022951;28;20028;-71
2023/12/15 11:17:57;;;;;;;0.65;0.20;;;;;;;13.30;30.45;99534.50;5025644;28;20558;-69
2023/12/15 11:20:23;;;;;;;0.10;0.10;;;;;;;13.32;29.56;99532.59;5039080;28;20040;-71
2023/12/15 11:22:58;;;;;;;0.32;0.20;;;;;;;13.03;30.54;99486.41;5040677;28;20029;-69
2023/12/15 11:25:30;;;;;;;0.90;0.25;;;;;;;13.27;31.48;99517.31;5046046;28;20032;-68
2023/12/15 11:28:11;;;;;;;0.47;0.20;;;;;;;13.22;32.19;99522.94;5044727;28;20039;-69
2023/12/15 11:30:44;;;;;;;0.20;0.10;;;;;;;13.26;30.78;99521.69;5024994;28;20032;-69
2023/12/15 11:33:36;;;;;;;0.63;0.30;;;;;;;13.23;32.21;99519.38;5023211;28;20211;-70
2023/12/15 11:36:02;;;;;;;0.15;0.10;;;;;;;13.26;30.74;99523.50;5045931;28;20599;-71